createdAt,value
2024-03-21T00:01:32.298Z,32.60
2024-03-21T00:11:37.868Z,29.70
2024-03-21T00:21:43.465Z,28.90
2024-03-21T00:31:49.015Z,30.90
2024-03-21T00:41:54.642Z,29.40
2024-03-21T00:52:00.099Z,29.40
2024-03-21T01:02:05.593Z,31.00
2024-03-21T01:12:11.141Z,29.40
2024-03-21T01:22:16.469Z,30.00
2024-03-21T01:32:22.913Z,30.10
2024-03-21T01:42:28.744Z,28.90
2024-03-21T01:52:35.313Z,30.60
2024-03-21T02:02:40.908Z,28.80
2024-03-21T02:12:48.829Z,25.90
2024-03-21T02:22:54.132Z,27.80
2024-03-21T02:32:59.538Z,29.90
2024-03-21T02:43:05.371Z,26.50
2024-03-21T02:53:11.022Z,26.90
2024-03-21T03:03:16.540Z,28.80
2024-03-21T03:13:22.311Z,26.80
2024-03-21T03:23:27.732Z,28.70
2024-03-21T03:33:51.457Z,25.00
2024-03-21T03:43:56.906Z,24.30
2024-03-21T03:54:02.448Z,25.90
2024-03-21T04:04:07.870Z,26.00
2024-03-21T04:14:13.354Z,24.10
2024-03-21T04:24:18.857Z,24.70
2024-03-21T04:34:24.682Z,25.30
2024-03-21T04:44:30.178Z,25.60
2024-03-21T04:54:35.659Z,27.00
2024-03-21T05:04:41.014Z,22.30
2024-03-21T05:14:46.444Z,23.60
2024-03-21T05:24:52.082Z,23.60
2024-03-21T05:34:58.033Z,23.50
2024-03-21T05:45:03.470Z,23.80
2024-03-21T05:55:10.740Z,24.10
2024-03-21T06:05:16.998Z,23.00
2024-03-21T06:15:22.388Z,24.60
2024-03-21T06:25:27.773Z,24.80
2024-03-21T06:35:33.311Z,26.40
2024-03-21T06:45:38.958Z,27.30
2024-03-21T06:55:44.639Z,25.30
2024-03-21T07:05:51.636Z,26.10
2024-03-21T07:15:57.035Z,28.00
2024-03-21T07:26:02.539Z,24.20
2024-03-21T07:36:08.643Z,24.60
2024-03-21T07:46:18.684Z,25.40
2024-03-21T07:56:24.371Z,25.40
2024-03-21T08:06:29.960Z,28.40
2024-03-21T08:16:36.122Z,27.30
2024-03-21T08:26:41.446Z,29.70
2024-03-21T08:36:47.320Z,26.40
2024-03-21T08:46:53.750Z,26.40
2024-03-21T08:56:59.139Z,29.80
2024-03-21T09:07:06.005Z,28.60
2024-03-21T09:17:11.507Z,27.40
2024-03-21T09:27:18.756Z,23.50
2024-03-21T09:37:27.617Z,27.30
2024-03-21T09:47:36.268Z,26.80
2024-03-21T09:57:42.116Z,26.90
2024-03-21T10:07:51.166Z,24.50
2024-03-21T10:17:56.899Z,23.90
2024-03-21T10:28:02.385Z,22.10
2024-03-21T10:38:10.065Z,22.40
2024-03-21T10:58:33.214Z,20.50
2024-03-21T11:08:38.771Z,20.60
2024-03-21T11:18:44.424Z,17.70
2024-03-21T11:28:53.403Z,19.40
2024-03-21T11:39:00.705Z,18.10
2024-03-21T11:49:07.702Z,19.70
2024-03-21T11:59:13.421Z,18.60
2024-03-21T12:09:18.867Z,19.50
2024-03-21T12:19:24.652Z,20.00
2024-03-21T12:29:30.484Z,16.30
2024-03-21T12:39:36.811Z,17.10
2024-03-21T12:49:43.561Z,17.80
2024-03-21T12:59:49.331Z,16.50
2024-03-21T13:09:54.902Z,14.90
2024-03-21T13:20:00.569Z,15.80
2024-03-21T13:30:08.222Z,14.80
2024-03-21T13:40:14.341Z,16.70
2024-03-21T13:50:19.944Z,17.60
2024-03-21T14:00:31.132Z,17.10
2024-03-21T14:10:36.652Z,15.60
2024-03-21T14:20:42.987Z,16.00
2024-03-21T14:30:49.080Z,17.80
2024-03-21T14:40:54.611Z,18.00
2024-03-21T14:51:00.001Z,16.50
2024-03-21T15:01:05.818Z,16.30
2024-03-21T15:11:11.353Z,17.20
2024-03-21T15:21:17.868Z,16.40
2024-03-21T15:31:23.666Z,19.20
2024-03-21T15:41:29.723Z,19.30
2024-03-21T15:51:35.177Z,12.70
2024-03-21T16:01:40.777Z,10.30
2024-03-21T16:11:55.611Z,12.50
2024-03-21T16:22:02.801Z,13.20
2024-03-21T16:32:08.722Z,14.70
2024-03-21T16:42:14.289Z,10.80
2024-03-21T16:52:19.633Z,12.20
2024-03-21T17:02:25.824Z,19.60
2024-03-21T17:12:31.282Z,27.60
2024-03-21T17:22:36.890Z,27.40
2024-03-21T17:32:42.361Z,25.80
2024-03-21T17:42:49.701Z,24.80
2024-03-21T17:52:55.762Z,24.30
2024-03-21T18:03:01.273Z,24.30
2024-03-21T18:13:08.687Z,27.60
2024-03-21T18:23:15.206Z,28.70
2024-03-21T18:33:20.789Z,25.40
2024-03-21T18:43:26.546Z,22.80
2024-03-21T18:53:32.163Z,22.40
2024-03-21T19:03:37.559Z,22.30
2024-03-21T19:13:43.120Z,26.00
2024-03-21T19:23:48.679Z,25.90
2024-03-21T19:33:54.945Z,24.10
2024-03-21T19:44:00.421Z,26.00
2024-03-21T19:54:05.821Z,22.90
2024-03-21T20:04:16.245Z,18.30
2024-03-21T20:14:21.883Z,19.10
2024-03-21T20:24:27.569Z,17.00
2024-03-21T20:34:32.962Z,17.70
2024-03-21T20:44:38.506Z,17.40
2024-03-21T20:54:44.011Z,17.40
2024-03-21T21:04:51.481Z,17.70
2024-03-21T21:14:56.928Z,18.70
2024-03-21T21:25:02.968Z,20.30
2024-03-21T21:35:09.551Z,17.70
2024-03-21T21:45:15.227Z,19.90
2024-03-21T21:55:20.943Z,20.30
2024-03-21T22:05:26.421Z,20.40
2024-03-21T22:15:32.876Z,17.30
2024-03-21T22:25:47.140Z,18.80
2024-03-21T22:35:52.522Z,19.50
2024-03-21T22:46:05.493Z,21.20
2024-03-21T22:56:13.786Z,22.90
2024-03-21T23:06:19.058Z,23.20
2024-03-21T23:16:24.440Z,24.70
2024-03-21T23:26:30.723Z,24.40
2024-03-21T23:36:36.195Z,23.50
2024-03-21T23:46:41.634Z,20.20
2024-03-21T23:56:58.232Z,19.90
